Time;durP1;ratioP1;P1;durP2;ratioP2;P2;SDS_P1;SDS_P2;PMS_P1;PMS_P2;Temp;Humidity;BMP_temperature;BMP_pressure;BME280_temperature;BME280_humidity;BME280_pressure;Samples;Min_cycle;Max_cycle;Signal;HPM_P1;HPM_P2
2022/06/14 00:01:15;;;;;;;9.47;5.50;;;;;;;22.47;100.00;101214.97;2066069;28;20174;-68
2022/06/14 00:02:16;;;;;;;8.43;5.83;;;;;;;22.42;100.00;101213.59;2066371;28;20512;-68
2022/06/14 00:03:16;;;;;;;8.90;5.60;;;;;;;22.36;100.00;101223.31;2066440;28;20179;-68
2022/06/14 00:04:17;;;;;;;7.87;4.97;;;;;;;22.37;100.00;101207.91;2066383;28;20182;-68
2022/06/14 00:05:18;;;;;;;12.77;5.77;;;;;;;22.30;100.00;101206.28;2066495;28;20189;-69
2022/06/14 00:06:22;;;;;;;9.30;5.37;;;;;;;21.68;100.00;101110.25;2066236;28;20234;-68
2022/06/14 00:07:22;;;;;;;8.43;5.40;;;;;;;22.39;100.00;101217.44;2066480;28;20197;-69
2022/06/14 00:08:27;;;;;;;9.57;5.40;;;;;;;22.42;100.00;101212.81;2066251;28;20472;-69
2022/06/14 00:09:27;;;;;;;8.73;5.73;;;;;;;22.39;100.00;101211.78;2066456;28;20182;-69
2022/06/14 00:10:28;;;;;;;7.70;5.50;;;;;;;22.33;100.00;101201.69;2066301;28;20431;-68
2022/06/14 00:11:31;;;;;;;12.30;5.80;;;;;;;22.41;100.00;101208.47;2066392;28;20178;-69
2022/06/14 00:12:32;;;;;;;6.93;5.00;;;;;;;22.37;100.00;101208.66;2066431;28;20616;-68
2022/06/14 00:13:32;;;;;;;7.80;5.27;;;;;;;22.29;100.00;101201.94;2066299;28;20479;-69
2022/06/14 00:14:33;;;;;;;11.13;6.27;;;;;;;22.30;100.00;101205.50;2066290;28;20179;-68
2022/06/14 00:15:34;;;;;;;6.57;5.80;;;;;;;22.30;100.00;101206.28;2066443;28;20297;-69
2022/06/14 00:16:36;;;;;;;8.83;5.50;;;;;;;21.15;100.00;101028.13;2066385;28;20175;-69
2022/06/14 00:17:37;;;;;;;9.40;5.70;;;;;;;22.39;100.00;101211.78;2066349;28;20425;-68
2022/06/14 00:18:37;;;;;;;11.10;5.60;;;;;;;21.73;100.00;101114.38;2066268;28;20457;-69
2022/06/14 00:19:38;;;;;;;10.60;5.57;;;;;;;22.27;100.00;101200.88;2066408;28;20182;-69
2022/06/14 00:20:40;;;;;;;9.03;5.83;;;;;;;22.40;100.00;101212.53;2066259;28;20174;-69
2022/06/14 00:21:40;;;;;;;15.67;6.37;;;;;;;22.40;100.00;101212.53;2066282;28;20659;-68
2022/06/14 00:22:41;;;;;;;6.17;5.53;;;;;;;22.34;100.00;101203.25;2066358;28;20808;-69
2022/06/14 00:23:41;;;;;;;10.07;5.80;;;;;;;21.56;100.00;101102.13;2066269;28;20616;-68
2022/06/14 00:24:42;;;;;;;10.03;5.30;;;;;;;22.30;100.00;101211.16;2066092;28;20573;-69
2022/06/14 00:25:51;;;;;;;6.80;5.60;;;;;;;22.21;100.00;101209.28;2065592;28;20238;-68
2022/06/14 00:26:51;;;;;;;6.07;5.47;;;;;;;22.12;100.00;101211.50;2065785;28;20213;-69
2022/06/14 00:27:52;;;;;;;6.60;5.30;;;;;;;22.06;100.00;101214.25;2066143;28;20472;-68
2022/06/14 00:28:53;;;;;;;8.17;5.63;;;;;;;21.98;100.00;101212.38;2066263;28;20175;-69
2022/06/14 00:29:53;;;;;;;5.77;5.23;;;;;;;21.98;100.00;101212.38;2065546;28;20182;-69
2022/06/14 00:30:57;;;;;;;7.87;5.73;;;;;;;21.82;100.00;101191.19;2065678;28;20269;-68
2022/06/14 00:31:58;;;;;;;6.87;5.10;;;;;;;22.00;100.00;101219.06;2066156;28;20671;-69
2022/06/14 00:32:59;;;;;;;6.40;5.03;;;;;;;21.89;100.00;101210.50;2066207;28;20797;-68
2022/06/14 00:34:00;;;;;;;6.10;5.50;;;;;;;21.89;100.00;101218.16;2066239;28;20528;-68
2022/06/14 00:35:00;;;;;;;8.07;5.50;;;;;;;21.90;100.00;101217.69;2066324;28;20179;-69
2022/06/14 00:36:08;;;;;;;9.43;6.13;;;;;;;21.60;100.00;101179.59;2066225;28;20178;-69
2022/06/14 00:37:14;;;;;;;8.87;5.43;;;;;;;21.87;100.00;101209.44;2066240;28;20246;-68
2022/06/14 00:38:15;;;;;;;12.73;6.10;;;;;;;21.90;100.00;101211.28;2066329;28;20958;-68
2022/06/14 00:39:16;;;;;;;19.40;6.53;;;;;;;21.93;100.00;101213.09;2066218;28;20422;-68
2022/06/14 00:40:21;;;;;;;8.80;5.30;;;;;;;21.92;100.00;101211.53;2066268;28;20431;-68
2022/06/14 00:41:42;;;;;;;11.63;5.90;;;;;;;21.96;100.00;101214.94;2066214;28;20171;-69
2022/06/14 00:42:42;;;;;;;11.13;5.90;;;;;;;21.90;100.00;101200.00;2066121;28;20972;-69
2022/06/14 00:43:43;;;;;;;14.50;6.17;;;;;;;21.14;100.00;101097.00;2066088;28;20836;-69
2022/06/14 00:45:20;;;;;;;12.80;5.60;;;;;;;21.95;100.00;101219.78;2065993;28;20189;-69
2022/06/14 00:46:26;;;;;;;11.00;5.40;;;;;;;22.03;100.00;101220.91;2049157;29;20218;-69
2022/06/14 00:47:27;;;;;;;7.27;4.90;;;;;;;21.62;100.00;101156.53;2064204;28;20437;-69
2022/06/14 00:48:31;;;;;;;13.90;5.67;;;;;;;22.02;100.00;101215.75;2066026;28;20465;-68
2022/06/14 00:50:15;;;;;;;5.27;4.60;;;;;;;22.03;100.00;101217.31;2066123;28;20190;-69
2022/06/14 00:51:30;;;;;;;7.67;5.13;;;;;;;22.03;100.00;101209.63;2057146;28;20442;-69
2022/06/14 00:52:42;;;;;;;12.27;5.60;;;;;;;21.98;100.00;101210.34;2057170;28;20454;-69
2022/06/14 00:53:54;;;;;;;8.47;5.30;;;;;;;22.06;100.00;101213.50;2057380;28;20419;-68
2022/06/14 00:55:00;;;;;;;10.13;5.37;;;;;;;21.61;100.00;101143.72;2057103;28;20411;-69
2022/06/14 00:56:04;;;;;;;7.20;4.87;;;;;;;22.02;100.00;101219.38;2057209;28;20442;-69
2022/06/14 00:57:36;;;;;;;5.83;4.83;;;;;;;22.02;100.00;101210.91;2057715;28;20427;-69
2022/06/14 00:59:07;;;;;;;7.00;5.03;;;;;;;21.90;100.00;101203.56;2056792;28;20442;-69
2022/06/14 01:00:12;;;;;;;11.03;5.07;;;;;;;21.94;100.00;101221.06;2058030;28;20403;-69
2022/06/14 01:01:23;;;;;;;9.50;5.27;;;;;;;21.51;100.00;101159.22;2057937;28;20418;-69
2022/06/14 01:02:27;;;;;;;7.73;4.50;;;;;;;21.90;100.00;101214.84;2058150;28;20403;-69
2022/06/14 01:03:58;;;;;;;6.80;4.63;;;;;;;21.92;100.00;101222.84;2058028;28;20418;-69
2022/06/14 01:05:05;;;;;;;7.93;5.17;;;;;;;21.93;100.00;101227.19;2056670;28;20446;-68
2022/06/14 01:06:44;;;;;;;7.30;4.73;;;;;;;21.89;100.00;101221.78;2057829;28;20413;-68
2022/06/14 01:07:51;;;;;;;6.50;4.97;;;;;;;21.88;100.00;101225.88;2057924;28;20505;-69
2022/06/14 01:08:58;;;;;;;10.93;5.07;;;;;;;21.81;100.00;101228.34;2057959;28;20414;-69
2022/06/14 01:10:06;;;;;;;9.03;5.00;;;;;;;21.74;100.00;101226.72;2057955;28;20530;-68
2022/06/14 01:11:13;;;;;;;8.43;5.30;;;;;;;21.76;100.00;101226.25;2058076;28;20414;-69
2022/06/14 01:12:18;;;;;;;8.80;5.03;;;;;;;21.77;100.00;101222.94;2057931;28;20848;-68
2022/06/14 01:13:20;;;;;;;8.07;5.10;;;;;;;21.76;100.00;101224.22;2057938;28;20414;-68
2022/06/14 01:14:26;;;;;;;6.43;4.87;;;;;;;21.44;100.00;101170.94;2057630;28;20962;-69
2022/06/14 01:15:30;;;;;;;6.80;4.93;;;;;;;21.00;100.00;101100.69;2057892;28;20414;-68
2022/06/14 01:16:32;;;;;;;8.60;4.87;;;;;;;21.81;100.00;101220.63;2057838;28;20514;-69
2022/06/14 01:17:42;;;;;;;12.43;5.23;;;;;;;21.83;100.00;101231.44;2057794;28;20426;-68
2022/06/14 01:18:44;;;;;;;10.03;4.90;;;;;;;21.87;100.00;101215.06;2057916;28;20911;-68
2022/06/14 01:19:45;;;;;;;8.50;4.80;;;;;;;20.84;100.00;101081.50;2057859;28;20432;-69
2022/06/14 01:20:46;;;;;;;7.73;4.80;;;;;;;21.82;100.00;101216.56;2057733;28;20418;-68
2022/06/14 01:21:52;;;;;;;10.00;4.80;;;;;;;20.88;100.00;101067.19;2057834;28;20929;-68
2022/06/14 01:22:54;;;;;;;13.63;5.00;;;;;;;21.86;100.00;101217.09;2057103;28;20561;-69
2022/06/14 01:23:54;;;;;;;7.20;4.83;;;;;;;21.85;100.00;101214.81;2057264;28;20975;-69
2022/06/14 01:24:55;;;;;;;8.00;5.20;;;;;;;21.81;100.00;101211.41;2057579;28;20816;-69
2022/06/14 01:26:08;;;;;;;9.00;5.20;;;;;;;21.84;100.00;101216.06;2057810;28;20203;-68
2022/06/14 01:27:14;;;;;;;8.27;4.83;;;;;;;21.87;100.00;101223.53;2057804;28;20406;-69
2022/06/14 01:28:17;;;;;;;7.47;4.40;;;;;;;21.20;100.00;101117.59;2057737;28;20884;-69
2022/06/14 01:29:19;;;;;;;5.60;5.00;;;;;;;21.75;100.00;101210.59;2057742;28;20481;-69
2022/06/14 01:30:26;;;;;;;7.57;4.73;;;;;;;21.78;100.00;101218.03;2057803;28;20453;-68
2022/06/14 01:31:29;;;;;;;8.67;4.70;;;;;;;21.82;100.00;101232.72;2062822;28;20413;-69
2022/06/14 01:32:33;;;;;;;9.30;5.10;;;;;;;21.52;100.00;101184.13;2065711;28;20421;-68
2022/06/14 01:33:44;;;;;;;7.13;4.73;;;;;;;21.26;100.00;101132.53;2065745;28;20459;-68
2022/06/14 01:34:50;;;;;;;11.57;4.80;;;;;;;21.55;100.00;101185.19;2065678;28;20410;-69
2022/06/14 01:35:59;;;;;;;9.90;4.83;;;;;;;20.86;100.00;101081.78;2065749;28;20497;-69
2022/06/14 01:37:00;;;;;;;5.10;4.43;;;;;;;21.80;100.00;101224.75;2065961;28;20402;-68
2022/06/14 01:38:06;;;;;;;8.40;4.97;;;;;;;21.77;100.00;101217.28;2065016;28;20429;-69
2022/06/14 01:39:11;;;;;;;8.70;5.13;;;;;;;21.64;100.00;101193.50;2065437;28;20779;-69
2022/06/14 01:40:12;;;;;;;8.93;4.90;;;;;;;21.75;100.00;101210.59;2065732;28;20433;-69
2022/06/14 01:41:34;;;;;;;8.57;4.77;;;;;;;21.82;100.00;101212.97;2065592;28;20420;-69
2022/06/14 01:43:07;;;;;;;10.03;5.10;;;;;;;21.62;100.00;101201.66;2064913;28;20444;-69
2022/06/14 01:44:45;;;;;;;5.90;4.73;;;;;;;21.71;100.00;101215.66;2065334;28;20504;-69
2022/06/14 01:45:48;;;;;;;6.57;4.50;;;;;;;21.77;100.00;101222.13;2065776;28;20405;-69
2022/06/14 01:46:49;;;;;;;9.80;4.97;;;;;;;21.75;100.00;101213.41;2065529;28;20851;-69
2022/06/14 01:48:07;;;;;;;11.63;5.03;;;;;;;21.78;100.00;101213.19;2064919;28;20532;-69
2022/06/14 01:52:24;;;;;;;18.73;5.53;;;;;;;21.86;100.00;101231.22;2065687;28;20406;-69
2022/06/14 01:53:32;;;;;;;13.50;5.90;;;;;;;21.13;100.00;101122.88;2065249;28;20174;-69
2022/06/14 01:54:35;;;;;;;18.47;5.97;;;;;;;21.86;100.00;101224.81;2065090;28;20912;-69
2022/06/14 01:55:48;;;;;;;15.27;5.87;;;;;;;21.86;100.00;101228.41;2065514;28;20417;-69
2022/06/14 01:57:09;;;;;;;14.00;5.77;;;;;;;21.86;100.00;101217.09;2065510;28;20414;-69
2022/06/14 01:58:22;;;;;;;15.37;5.73;;;;;;;21.68;100.00;101200.50;2065514;28;20390;-69
2022/06/14 01:59:40;;;;;;;9.67;4.97;;;;;;;21.80;100.00;101229.63;2065511;28;20639;-69
2022/06/14 02:01:22;;;;;;;10.87;5.23;;;;;;;21.80;100.00;101229.63;2064867;28;20465;-69
2022/06/14 02:02:31;;;;;;;13.50;5.20;;;;;;;21.76;100.00;101234.69;2051430;28;20941;-69
2022/06/14 02:05:16;;;;;;;17.33;5.07;;;;;;;21.77;100.00;101230.59;2065253;28;20182;-69
2022/06/14 02:06:27;;;;;;;11.07;5.13;;;;;;;21.76;100.00;101224.22;2065304;28;20477;-69
2022/06/14 02:07:55;;;;;;;13.30;5.03;;;;;;;21.74;100.00;101225.97;2065544;28;20854;-69
2022/06/14 02:09:05;;;;;;;7.13;4.50;;;;;;;21.52;100.00;101214.34;2065533;28;20409;-68
2022/06/14 02:10:18;;;;;;;8.60;4.97;;;;;;;21.71;100.00;101236.19;2065458;28;20409;-69
2022/06/14 02:11:31;;;;;;;12.13;4.80;;;;;;;21.68;100.00;101236.34;2065332;28;20186;-69
2022/06/14 02:13:02;;;;;;;14.00;5.40;;;;;;;21.65;100.00;101231.72;2065386;28;20796;-69
2022/06/14 02:14:02;;;;;;;13.07;4.97;;;;;;;21.65;100.00;101231.72;2065421;28;20475;-69
2022/06/14 02:15:10;;;;;;;12.17;5.20;;;;;;;21.64;100.00;101233.75;2065362;28;20471;-69
2022/06/14 02:16:24;;;;;;;14.33;5.20;;;;;;;21.38;100.00;101210.34;2065437;28;20562;-69
2022/06/14 02:17:47;;;;;;;9.97;4.70;;;;;;;20.84;100.00;101112.50;2065348;28;20405;-69
2022/06/14 02:19:01;;;;;;;13.10;5.43;;;;;;;21.56;100.00;101238.28;2065336;28;20406;-69
2022/06/14 02:20:07;;;;;;;6.03;4.57;;;;;;;21.29;100.00;101193.56;2065206;28;20892;-69
2022/06/14 02:21:13;;;;;;;10.97;5.03;;;;;;;21.52;100.00;101234.09;2065353;28;20413;-69
2022/06/14 02:22:19;;;;;;;7.13;4.53;;;;;;;21.57;100.00;101239.81;2065343;28;20421;-69
2022/06/14 02:23:23;;;;;;;6.90;4.50;;;;;;;21.57;100.00;101237.00;2065354;28;20870;-69
2022/06/14 02:24:29;;;;;;;12.30;5.17;;;;;;;21.58;100.00;101241.38;2065165;28;20429;-69
2022/06/14 02:25:37;;;;;;;11.97;5.20;;;;;;;21.62;100.00;101241.16;2065301;28;20877;-69
2022/06/14 02:26:50;;;;;;;6.80;4.90;;;;;;;20.81;100.00;101138.81;2065277;28;20410;-69
2022/06/14 02:28:01;;;;;;;13.20;5.00;;;;;;;21.46;100.00;101219.94;2065340;28;20420;-69
2022/06/14 02:29:13;;;;;;;7.43;4.90;;;;;;;21.57;100.00;101241.84;2064709;28;20520;-69
2022/06/14 02:30:18;;;;;;;5.20;4.70;;;;;;;21.51;100.00;101244.63;2064880;28;20158;-69
2022/06/14 02:31:31;;;;;;;7.80;4.77;;;;;;;21.55;100.00;101250.03;2065317;28;20425;-69
2022/06/14 02:32:42;;;;;;;11.40;4.80;;;;;;;21.60;100.00;101246.53;2065256;28;20439;-69
2022/06/14 02:33:49;;;;;;;8.83;4.80;;;;;;;21.60;100.00;101247.28;2065372;28;20955;-69
2022/06/14 02:34:59;;;;;;;13.60;4.70;;;;;;;21.58;100.00;101257.50;2065098;28;20791;-69
2022/06/14 02:36:09;;;;;;;8.23;4.30;;;;;;;21.55;100.00;101247.22;2065262;28;20428;-69
2022/06/14 02:37:17;;;;;;;9.00;4.93;;;;;;;21.57;100.00;101270.84;2065441;28;20405;-69
2022/06/14 02:38:27;;;;;;;6.27;4.13;;;;;;;21.53;100.00;101247.72;2064602;28;20170;-69
2022/06/14 02:39:34;;;;;;;6.37;4.20;;;;;;;21.49;100.00;101252.78;2064763;28;20644;-69
2022/06/14 02:40:35;;;;;;;4.77;4.23;;;;;;;21.50;100.00;101240.22;2065218;28;20413;-69
2022/06/14 02:41:46;;;;;;;6.30;4.07;;;;;;;21.58;100.00;101247.00;2065086;28;20445;-69
2022/06/14 02:42:59;;;;;;;4.10;3.70;;;;;;;21.48;100.00;101248.41;2065304;28;20605;-69
2022/06/14 02:44:09;;;;;;;8.43;4.07;;;;;;;21.41;100.00;101236.78;2065309;28;20444;-69
2022/06/14 02:45:24;;;;;;;6.50;4.00;;;;;;;21.45;100.00;101259.91;2065233;28;20796;-69
2022/06/14 02:46:33;;;;;;;7.87;4.33;;;;;;;21.43;100.00;101240.66;2065304;28;20449;-69
2022/06/14 02:47:34;;;;;;;9.97;5.00;;;;;;;21.53;100.00;101246.94;2065186;28;20496;-69
2022/06/14 02:48:57;;;;;;;10.77;4.27;;;;;;;21.53;100.00;101247.72;2064338;28;20473;-69
2022/06/14 02:50:06;;;;;;;9.53;4.20;;;;;;;21.29;100.00;101227.38;2064887;28;20198;-69
2022/06/14 02:51:15;;;;;;;8.53;4.87;;;;;;;21.61;100.00;101262.97;2065072;28;20439;-69
2022/06/14 02:52:43;;;;;;;13.00;4.77;;;;;;;21.64;100.00;101264.03;2065177;28;20496;-69
2022/06/14 02:53:58;;;;;;;8.50;4.17;;;;;;;21.57;100.00;101253.13;2057271;28;20411;-69
2022/06/14 02:55:36;;;;;;;6.77;3.93;;;;;;;21.56;100.00;101263.66;2057093;28;20450;-68
2022/06/14 02:57:04;;;;;;;4.67;4.27;;;;;;;21.59;100.00;101265.47;2048722;28;20427;-69
2022/06/14 02:58:11;;;;;;;6.87;4.30;;;;;;;21.63;100.00;101259.63;2061122;28;20403;-69
2022/06/14 02:59:23;;;;;;;9.37;4.23;;;;;;;21.64;100.00;101258.38;2057048;28;20513;-69
2022/06/14 03:00:33;;;;;;;8.93;4.60;;;;;;;21.61;100.00;101262.97;2064366;28;20440;-69
2022/06/14 03:01:40;;;;;;;5.73;3.90;;;;;;;21.61;100.00;101262.97;2063413;28;20397;-69
2022/06/14 03:03:07;;;;;;;7.23;4.20;;;;;;;21.59;100.00;101254.19;2057256;28;20968;-69
2022/06/14 03:04:14;;;;;;;9.23;4.30;;;;;;;21.61;100.00;101260.13;2054473;28;20493;-69
2022/06/14 03:05:36;;;;;;;7.83;4.47;;;;;;;21.59;100.00;101244.97;2056934;28;20415;-69
2022/06/14 03:06:47;;;;;;;7.03;3.83;;;;;;;21.69;100.00;101266.16;2056307;28;20548;-69
2022/06/14 03:07:59;;;;;;;6.00;3.60;;;;;;;21.48;100.00;101233.53;2056672;28;20473;-69
2022/06/14 03:09:09;;;;;;;7.47;4.10;;;;;;;21.62;100.00;101252.44;2057082;28;20426;-69
2022/06/14 03:10:09;;;;;;;8.10;4.03;;;;;;;21.61;100.00;101256.53;2057129;28;20406;-69
2022/06/14 03:11:22;;;;;;;6.03;4.10;;;;;;;21.67;100.00;101255.34;2056995;28;20566;-69
2022/06/14 03:12:39;;;;;;;10.83;4.07;;;;;;;21.72;100.00;101257.50;2057121;28;20179;-69
2022/06/14 03:13:52;;;;;;;6.17;3.97;;;;;;;21.69;100.00;101260.53;2057008;28;20568;-69
2022/06/14 03:15:04;;;;;;;8.20;4.00;;;;;;;21.70;100.00;101259.25;2056947;28;20445;-69
2022/06/14 03:16:13;;;;;;;7.27;3.80;;;;;;;21.75;100.00;101252.91;2062808;28;20443;-69
2022/06/14 03:17:34;;;;;;;8.10;3.97;;;;;;;21.73;100.00;101252.59;2065081;28;20492;-69
2022/06/14 03:18:49;;;;;;;5.33;3.70;;;;;;;21.69;100.00;101252.81;2065045;28;20899;-69
2022/06/14 03:20:10;;;;;;;8.60;3.70;;;;;;;21.58;100.00;101255.47;2065121;28;20398;-69
2022/06/14 03:21:19;;;;;;;12.20;3.90;;;;;;;21.57;100.00;101258.78;2064251;28;20440;-68
2022/06/14 03:22:22;;;;;;;8.17;3.73;;;;;;;21.56;100.00;101255.19;2064568;28;20414;-69
2022/06/14 03:23:47;;;;;;;6.80;3.80;;;;;;;21.54;100.00;101257.72;2065069;28;20421;-69
2022/06/14 03:25:00;;;;;;;6.27;3.80;;;;;;;21.59;100.00;101259.09;2065092;28;20414;-68
2022/06/14 03:26:08;;;;;;;5.10;3.73;;;;;;;21.09;100.00;101178.69;2065146;28;20418;-69
2022/06/14 03:27:14;;;;;;;5.57;3.67;;;;;;;21.62;100.00;101255.25;2065210;28;20413;-69
2022/06/14 03:28:18;;;;;;;5.67;3.70;;;;;;;21.58;100.00;101254.69;2064961;28;20464;-69
2022/06/14 03:29:28;;;;;;;6.73;3.70;;;;;;;21.09;100.00;101181.50;2064921;28;21018;-69
2022/06/14 03:30:36;;;;;;;7.83;4.20;;;;;;;21.61;100.00;101257.31;2065182;28;20405;-69
2022/06/14 03:31:44;;;;;;;8.60;3.90;;;;;;;20.71;100.00;101116.88;2065044;28;20410;-69
2022/06/14 03:33:07;;;;;;;8.63;4.33;;;;;;;21.32;100.00;101217.94;2065180;28;20404;-68
2022/06/14 03:34:36;;;;;;;7.07;4.20;;;;;;;21.64;100.00;101264.03;2064971;28;20970;-69
2022/06/14 03:35:41;;;;;;;6.73;3.83;;;;;;;21.66;100.00;101265.09;2065037;28;20398;-69
2022/06/14 03:36:41;;;;;;;7.30;3.57;;;;;;;21.68;100.00;101268.19;2065126;28;20869;-69
2022/06/14 03:37:43;;;;;;;10.73;4.17;;;;;;;21.69;100.00;101271.81;2064985;28;20417;-69
2022/06/14 03:38:51;;;;;;;7.10;3.87;;;;;;;21.67;100.00;101271.47;2065017;28;20178;-69
2022/06/14 03:39:58;;;;;;;4.57;3.50;;;;;;;21.28;100.00;101216.63;2065067;28;20850;-69
2022/06/14 03:40:59;;;;;;;5.60;3.70;;;;;;;21.69;100.00;101277.44;2065088;28;20414;-69
2022/06/14 03:42:04;;;;;;;6.23;3.97;;;;;;;21.66;100.00;101278.41;2065030;28;20420;-69
2022/06/14 03:43:04;;;;;;;9.90;4.37;;;;;;;21.58;100.00;101266.75;2064730;28;20202;-69
2022/06/14 03:44:06;;;;;;;5.63;4.00;;;;;;;20.68;100.00;101127.09;2064722;28;20302;-69
2022/06/14 03:45:09;;;;;;;5.40;3.80;;;;;;;21.60;100.00;101261.38;2064644;28;20192;-68
2022/06/14 03:46:21;;;;;;;7.53;3.97;;;;;;;21.75;100.00;101284.69;2065005;28;20417;-69
2022/06/14 03:47:25;;;;;;;6.30;3.63;;;;;;;21.80;100.00;101291.69;2065059;28;20414;-69
2022/06/14 03:48:28;;;;;;;6.37;3.53;;;;;;;21.84;100.00;101297.88;2064762;28;20547;-69
2022/06/14 03:49:28;;;;;;;7.80;4.20;;;;;;;21.84;100.00;101290.19;2064969;28;20997;-69
2022/06/14 03:51:03;;;;;;;6.70;4.03;;;;;;;21.78;100.00;101283.72;2064795;28;20938;-69
2022/06/14 03:52:38;;;;;;;8.07;4.17;;;;;;;21.80;100.00;101297.34;2051416;28;20282;-69
2022/06/14 03:53:39;;;;;;;6.10;4.10;;;;;;;21.88;100.00;101295.63;2040387;28;20436;-69
2022/06/14 03:54:58;;;;;;;9.90;4.17;;;;;;;21.93;100.00;101292.88;2056005;28;20230;-69
2022/06/14 03:56:11;;;;;;;8.10;4.40;;;;;;;21.96;100.00;101294.69;2056876;28;20614;-69
2022/06/14 03:57:43;;;;;;;8.70;4.37;;;;;;;21.94;100.00;101294.44;2056941;28;20427;-69
2022/06/14 03:59:02;;;;;;;10.60;3.77;;;;;;;21.89;100.00;101291.53;2040013;29;20427;-69
2022/06/14 04:00:32;;;;;;;7.73;4.00;;;;;;;21.38;100.00;101227.25;2056766;28;20187;-69
2022/06/14 04:01:53;;;;;;;5.53;4.13;;;;;;;21.96;100.00;101296.75;2056690;28;20556;-69
2022/06/14 04:03:14;;;;;;;7.97;3.70;;;;;;;22.01;100.00;101299.63;2056847;28;20410;-68
2022/06/14 04:04:26;;;;;;;8.97;4.40;;;;;;;22.04;100.00;101304.31;2056692;28;20183;-70
2022/06/14 04:05:42;;;;;;;8.60;4.27;;;;;;;22.07;100.00;101308.19;2056836;28;20235;-69
2022/06/14 04:06:49;;;;;;;9.17;4.50;;;;;;;22.10;100.00;101310.78;2056511;28;20565;-70
2022/06/14 04:08:00;;;;;;;8.17;4.27;;;;;;;22.16;100.00;101302.41;2056260;28;20469;-69
2022/06/14 04:09:03;;;;;;;9.27;4.50;;;;;;;22.21;100.00;101299.63;2062192;28;20183;-71
2022/06/14 04:10:19;;;;;;;8.80;4.47;;;;;;;22.21;100.00;101301.69;2057968;28;20879;-68
2022/06/14 04:11:19;;;;;;;8.03;4.00;;;;;;;22.32;100.00;101304.63;2056373;28;20199;-70
2022/06/14 04:12:35;;;;;;;6.77;3.77;;;;;;;22.30;100.00;101295.84;2057258;28;20191;-70
2022/06/14 04:14:01;;;;;;;5.77;4.00;;;;;;;22.30;100.00;101298.69;2055138;28;20695;-70
2022/06/14 04:15:13;;;;;;;5.83;3.60;;;;;;;22.33;100.00;101303.34;2025965;29;20240;-70
2022/06/14 04:16:31;;;;;;;8.00;4.07;;;;;;;21.82;100.00;101224.25;2061812;28;20870;-69
2022/06/14 04:17:45;;;;;;;4.83;3.67;;;;;;;22.39;100.00;101301.34;2060799;28;20182;-70
2022/06/14 04:18:54;;;;;;;12.20;3.80;;;;;;;22.44;100.00;101306.28;2064938;28;20165;-70
2022/06/14 04:20:04;;;;;;;11.50;3.93;;;;;;;22.37;100.00;101303.91;2064525;28;20581;-70
2022/06/14 04:21:51;;;;;;;4.93;3.47;;;;;;;22.48;100.00;101304.06;2065045;28;20218;-70
2022/06/14 04:22:55;;;;;;;7.67;3.90;;;;;;;22.54;100.00;101302.84;2046477;29;20327;-69
2022/06/14 04:24:17;;;;;;;5.40;3.60;;;;;;;22.54;100.00;101307.72;2048105;29;20222;-70
2022/06/14 04:25:46;;;;;;;6.37;3.67;;;;;;;22.60;100.00;101303.66;2048205;29;20214;-70
2022/06/14 04:26:57;;;;;;;5.17;3.70;;;;;;;22.69;100.00;101314.03;2048016;29;20361;-70
2022/06/14 04:28:19;;;;;;;7.13;3.97;;;;;;;22.70;100.00;101304.25;2048573;28;20499;-70
2022/06/14 04:29:48;;;;;;;5.00;3.77;;;;;;;22.73;100.00;101304.03;2059721;28;20233;-69
2022/06/14 04:30:58;;;;;;;11.60;4.10;;;;;;;22.32;100.00;101231.97;2057060;28;20209;-69
2022/06/14 04:32:19;;;;;;;5.37;3.93;;;;;;;22.82;100.00;101295.38;2068961;28;20701;-69
2022/06/14 04:33:37;;;;;;;5.97;3.80;;;;;;;22.95;100.00;101304.25;2064189;28;20213;-70
2022/06/14 04:34:46;;;;;;;5.00;3.73;;;;;;;22.99;100.00;101304.00;2062627;28;20189;-70
2022/06/14 04:35:56;;;;;;;5.47;3.93;;;;;;;23.00;100.00;101325.34;2065591;28;20617;-70
2022/06/14 04:37:11;;;;;;;8.60;3.73;;;;;;;23.09;100.00;101308.97;2065382;28;20755;-70
2022/06/14 04:38:18;;;;;;;6.17;3.43;;;;;;;23.13;100.00;101312.34;2064820;28;20201;-70
2022/06/14 04:39:25;;;;;;;6.20;3.57;;;;;;;23.14;100.00;101301.81;2065606;28;20190;-70
2022/06/14 04:40:33;;;;;;;5.90;3.27;;;;;;;23.08;100.00;101296.13;2065303;28;20171;-70
2022/06/14 04:41:41;;;;;;;5.43;3.70;;;;;;;22.92;100.00;101271.31;2065202;28;20252;-70
2022/06/14 04:42:54;;;;;;;5.23;3.37;;;;;;;22.88;100.00;101253.81;2065311;28;20171;-70
2022/06/14 04:44:07;;;;;;;5.53;3.57;;;;;;;23.30;100.00;101313.28;2065201;28;20563;-71
2022/06/14 04:45:13;;;;;;;6.43;4.10;;;;;;;23.25;100.00;101322.50;2065121;28;20539;-70
2022/06/14 04:46:23;;;;;;;5.60;3.30;;;;;;;23.23;100.00;101298.84;2064954;28;20499;-70
2022/06/14 04:47:35;;;;;;;6.73;3.30;;;;;;;23.36;100.00;101314.09;2065457;28;20262;-70
2022/06/14 04:48:51;;;;;;;4.00;3.20;;;;;;;23.45;100.00;101316.75;2064389;28;20202;-71
2022/06/14 04:50:04;;;;;;;6.17;3.20;;;;;;;23.50;100.00;101320.88;2065110;28;20538;-66
2022/06/14 04:51:17;;;;;;;5.57;2.57;;;;;;;23.77;100.00;101317.41;2065317;28;20245;-64
2022/06/14 04:52:23;;;;;;;5.80;3.03;;;;;;;23.95;100.00;101302.88;2065871;28;20194;-63
2022/06/14 04:53:29;;;;;;;4.47;3.30;;;;;;;24.02;100.00;101311.66;2065924;28;20607;-64
2022/06/14 04:54:50;;;;;;;7.43;3.40;;;;;;;23.88;100.00;101249.53;2066055;28;20171;-64
2022/06/14 04:56:02;;;;;;;8.23;3.27;;;;;;;24.34;100.00;101315.09;2065547;28;20163;-63
2022/06/14 04:57:09;;;;;;;4.67;2.70;;;;;;;24.01;100.00;101227.97;2065271;28;20170;-62
2022/06/14 04:58:14;;;;;;;6.03;3.20;;;;;;;24.81;100.00;101306.44;2064956;28;20174;-63
2022/06/14 04:59:26;;;;;;;6.10;2.73;;;;;;;24.88;100.00;101279.66;2065519;28;20542;-63
2022/06/14 05:00:32;;;;;;;3.87;3.03;;;;;;;25.17;100.00;101307.50;2060186;28;20182;-63
2022/06/14 05:01:41;;;;;;;6.20;2.80;;;;;;;25.09;100.00;101309.28;2057921;28;20175;-63
2022/06/14 05:02:49;;;;;;;7.80;3.00;;;;;;;25.19;100.00;101314.16;2061235;28;20546;-62
2022/06/14 05:04:10;;;;;;;5.83;3.00;;;;;;;25.23;100.00;101314.69;2062720;28;20198;-64
2022/06/14 05:05:13;;;;;;;8.13;3.10;;;;;;;25.09;100.00;101315.75;2056839;28;20560;-63
2022/06/14 05:06:24;;;;;;;4.33;2.90;;;;;;;24.97;100.00;101305.69;2063127;28;20234;-63
2022/06/14 05:07:31;;;;;;;4.73;2.67;;;;;;;25.01;100.00;101311.88;2065258;28;20173;-63
2022/06/14 05:08:42;;;;;;;5.23;2.70;;;;;;;25.08;100.00;101319.09;2064670;28;20195;-63
2022/06/14 05:10:09;;;;;;;8.00;2.97;;;;;;;25.09;100.00;101312.91;2065216;28;20176;-64
2022/06/14 05:11:09;;;;;;;4.07;2.60;;;;;;;25.19;100.00;101314.16;2064975;28;20197;-63
2022/06/14 05:12:16;;;;;;;3.80;2.87;;;;;;;25.06;100.00;101313.16;2065386;28;20193;-62
2022/06/14 05:13:30;;;;;;;6.13;2.90;;;;;;;25.09;100.00;101323.47;2065469;28;20637;-62
2022/06/14 05:15:01;;;;;;;7.20;2.80;;;;;;;25.17;100.00;101322.44;2065552;28;20225;-63
2022/06/14 05:16:10;;;;;;;5.43;2.97;;;;;;;25.22;100.00;101321.66;2048180;29;20214;-62
2022/06/14 05:17:23;;;;;;;3.57;2.83;;;;;;;25.06;100.00;101273.44;2065455;28;20251;-63
2022/06/14 05:18:35;;;;;;;5.60;3.00;;;;;;;25.31;100.00;101306.44;2065237;28;20171;-62
2022/06/14 05:19:48;;;;;;;5.33;2.97;;;;;;;25.43;100.00;101316.50;2065666;28;20225;-63
2022/06/14 05:21:07;;;;;;;5.67;2.73;;;;;;;25.51;100.00;101323.97;2065097;28;20182;-65
2022/06/14 05:22:18;;;;;;;6.27;2.90;;;;;;;25.46;100.00;101324.75;2065296;28;20257;-66
2022/06/14 05:23:28;;;;;;;9.47;2.80;;;;;;;25.58;100.00;101314.16;2065407;28;20170;-64
2022/06/14 05:24:30;;;;;;;3.23;2.53;;;;;;;25.57;100.00;101315.44;2065070;28;20205;-64
2022/06/14 05:26:01;;;;;;;5.77;2.80;;;;;;;25.70;100.00;101324.94;2065367;28;20793;-64
2022/06/14 05:27:10;;;;;;;4.60;2.60;;;;;;;25.66;100.00;101321.63;2065202;28;20175;-65
2022/06/14 05:28:15;;;;;;;4.87;2.80;;;;;;;25.13;100.00;101241.75;2064451;28;20182;-65